Time;durP1;ratioP1;P1;durP2;ratioP2;P2;SDS_P1;SDS_P2;PMS_P1;PMS_P2;Temp;Humidity;BMP_temperature;BMP_pressure;BME280_temperature;BME280_humidity;BME280_pressure;Samples;Min_cycle;Max_cycle;Signal;HPM_P1;HPM_P2
2024/01/17 00:00:39;;;;;;;6.93;3.88;;;0.50;99.90;;;;;;5000548;28;20032;-63
2024/01/17 00:03:06;;;;;;;8.02;3.80;;;0.60;99.90;;;;;;5003671;28;20040;-63
2024/01/17 00:05:33;;;;;;;11.13;4.43;;;0.50;99.90;;;;;;5006318;28;20111;-63
2024/01/17 00:07:59;;;;;;;10.02;3.97;;;0.40;99.90;;;;;;5002120;28;20038;-62
2024/01/17 00:10:24;;;;;;;9.30;4.78;;;0.40;99.90;;;;;;5001807;28;20041;-63
2024/01/17 00:12:50;;;;;;;6.80;3.78;;;0.40;99.90;;;;;;5004598;28;20169;-63
2024/01/17 00:15:18;;;;;;;15.93;4.05;;;0.40;99.90;;;;;;5002818;28;20057;-63
2024/01/17 00:17:46;;;;;;;7.38;3.88;;;0.40;99.90;;;;;;4999371;28;20027;-63
2024/01/17 00:20:13;;;;;;;7.47;3.70;;;0.40;99.90;;;;;;5003545;28;20483;-63
2024/01/17 00:22:39;;;;;;;8.10;3.42;;;0.30;99.90;;;;;;4998279;28;20030;-63
2024/01/17 00:25:06;;;;;;;8.77;4.38;;;0.30;99.90;;;;;;5002111;28;20120;-63
2024/01/17 00:27:32;;;;;;;6.50;4.00;;;0.20;99.90;;;;;;5003236;28;20038;-63
2024/01/17 00:29:58;;;;;;;9.35;4.07;;;0.10;99.90;;;;;;4999825;28;20040;-62
2024/01/17 00:32:24;;;;;;;8.43;3.72;;;-0.10;99.90;;;;;;5003027;28;20520;-63
2024/01/17 00:34:50;;;;;;;7.28;3.92;;;-0.20;99.90;;;;;;5003034;28;20040;-63
2024/01/17 00:37:15;;;;;;;9.98;3.90;;;-0.40;99.90;;;;;;5003965;28;20022;-63
2024/01/17 00:39:41;;;;;;;7.57;3.60;;;-0.40;99.90;;;;;;5003497;28;20085;-63
2024/01/17 00:42:07;;;;;;;6.30;3.38;;;-0.20;99.90;;;;;;4994877;28;20383;-63
2024/01/17 00:44:33;;;;;;;10.52;3.83;;;-0.10;99.90;;;;;;5007056;28;20735;-63
2024/01/17 00:46:59;;;;;;;8.73;4.18;;;0.00;99.90;;;;;;5001306;28;20041;-63
2024/01/17 00:49:25;;;;;;;13.15;4.20;;;0.00;99.90;;;;;;4999452;28;20490;-63
2024/01/17 00:51:51;;;;;;;8.52;4.47;;;0.00;99.90;;;;;;5003337;28;20115;-63
2024/01/17 00:54:17;;;;;;;10.10;4.13;;;0.10;99.90;;;;;;5003118;28;20079;-63
2024/01/17 00:56:42;;;;;;;11.18;4.50;;;0.10;99.90;;;;;;4999946;28;20133;-63
2024/01/17 00:59:09;;;;;;;8.23;3.67;;;0.10;99.90;;;;;;4999878;28;20090;-63
2024/01/17 01:01:34;;;;;;;11.18;3.92;;;0.10;99.90;;;;;;5002816;28;20117;-63
2024/01/17 01:04:00;;;;;;;6.10;3.67;;;-0.10;99.90;;;;;;5001926;28;20125;-63
2024/01/17 01:06:26;;;;;;;11.90;3.88;;;-0.20;99.90;;;;;;5000723;28;20033;-63
2024/01/17 01:08:51;;;;;;;8.57;3.63;;;-0.20;99.90;;;;;;5005078;28;20042;-63
2024/01/17 01:11:17;;;;;;;8.50;3.30;;;-0.10;99.90;;;;;;4996817;28;20041;-63
2024/01/17 01:13:43;;;;;;;12.02;4.15;;;-0.10;99.90;;;;;;4995691;28;20038;-63
2024/01/17 01:16:10;;;;;;;7.97;3.50;;;-0.10;99.90;;;;;;5003577;28;20030;-63
2024/01/17 01:18:36;;;;;;;8.80;3.72;;;-0.10;99.90;;;;;;5006406;28;20079;-63
2024/01/17 01:21:02;;;;;;;5.68;3.85;;;0.00;99.90;;;;;;4997887;28;20425;-63
2024/01/17 01:23:28;;;;;;;9.52;3.97;;;0.00;99.90;;;;;;5003096;28;20052;-63
2024/01/17 01:25:53;;;;;;;7.97;3.55;;;0.10;99.90;;;;;;4998817;28;20117;-63
2024/01/17 01:28:19;;;;;;;10.63;4.05;;;0.10;99.90;;;;;;4992483;28;20058;-63
2024/01/17 01:30:45;;;;;;;9.52;3.70;;;0.10;99.90;;;;;;4998522;28;20034;-63
2024/01/17 01:33:11;;;;;;;8.60;4.15;;;0.10;99.90;;;;;;4995852;28;20033;-63
2024/01/17 01:35:37;;;;;;;12.63;4.68;;;0.10;99.90;;;;;;5002420;28;20057;-63
2024/01/17 01:38:03;;;;;;;10.30;4.75;;;0.10;99.90;;;;;;5001846;28;20066;-63
2024/01/17 01:40:28;;;;;;;10.27;4.55;;;0.10;99.90;;;;;;5003422;28;20034;-63
2024/01/17 01:42:58;;;;;;;13.57;4.20;;;0.10;99.90;;;;;;5003442;28;20502;-63
2024/01/17 01:45:24;;;;;;;6.82;3.38;;;0.10;99.90;;;;;;4997966;28;20041;-63
2024/01/17 01:47:50;;;;;;;14.75;4.68;;;0.10;99.90;;;;;;4999339;28;20049;-63
2024/01/17 01:50:16;;;;;;;11.15;4.40;;;0.10;99.90;;;;;;5001673;28;20124;-63
2024/01/17 01:52:48;;;;;;;10.52;3.97;;;0.10;99.90;;;;;;4999664;28;20141;-63
2024/01/17 01:55:14;;;;;;;9.10;4.32;;;0.10;99.90;;;;;;5004235;28;20038;-63
2024/01/17 01:57:50;;;;;;;7.95;4.35;;;0.00;99.90;;;;;;5001647;28;20026;-63
2024/01/17 02:00:17;;;;;;;12.75;5.18;;;0.00;99.90;;;;;;5005996;28;20040;-63
2024/01/17 02:02:44;;;;;;;9.48;4.50;;;0.00;99.90;;;;;;5000063;28;20036;-63
2024/01/17 02:05:11;;;;;;;6.68;4.32;;;-0.10;99.90;;;;;;5000978;28;20574;-63
2024/01/17 02:07:37;;;;;;;11.35;4.68;;;-0.10;99.90;;;;;;4999463;28;20044;-63
2024/01/17 02:10:04;;;;;;;16.05;4.65;;;-0.10;99.90;;;;;;4998723;28;20034;-63
2024/01/17 02:12:31;;;;;;;12.43;4.88;;;-0.10;99.90;;;;;;4999787;28;20042;-63
2024/01/17 02:14:57;;;;;;;7.47;4.88;;;-0.10;99.90;;;;;;5004079;28;20040;-63
2024/01/17 02:17:23;;;;;;;9.88;4.70;;;-0.20;99.90;;;;;;5001259;28;20372;-63
2024/01/17 02:19:49;;;;;;;12.30;5.22;;;-0.20;99.90;;;;;;4999703;28;20546;-63
2024/01/17 02:22:15;;;;;;;9.60;5.03;;;-0.20;99.90;;;;;;4997982;28;20425;-63
2024/01/17 02:24:40;;;;;;;9.98;4.85;;;-0.20;99.90;;;;;;5002060;28;20034;-63
2024/01/17 02:27:06;;;;;;;11.27;5.28;;;-0.20;99.90;;;;;;5000020;28;20707;-63
2024/01/17 02:29:32;;;;;;;12.75;5.15;;;-0.20;99.90;;;;;;4998242;28;20450;-63
2024/01/17 02:31:58;;;;;;;11.50;5.13;;;-0.20;99.90;;;;;;5003104;28;20037;-63
2024/01/17 02:34:24;;;;;;;7.32;4.80;;;-0.20;99.90;;;;;;5004799;28;20033;-63
2024/01/17 02:36:50;;;;;;;11.30;4.65;;;-0.20;99.90;;;;;;4990257;28;20562;-63
2024/01/17 02:39:16;;;;;;;10.48;5.07;;;-0.20;99.90;;;;;;4999761;28;20034;-63
2024/01/17 02:41:43;;;;;;;8.43;4.45;;;-0.20;99.90;;;;;;4998028;28;20041;-63
2024/01/17 02:44:09;;;;;;;8.20;4.82;;;-0.30;99.90;;;;;;4999173;28;20479;-63
2024/01/17 02:46:34;;;;;;;13.55;4.80;;;-0.30;99.90;;;;;;5005257;28;20030;-63
2024/01/17 02:49:00;;;;;;;7.65;5.05;;;-0.30;99.90;;;;;;4994662;28;20034;-63
2024/01/17 02:51:26;;;;;;;11.02;4.55;;;-0.40;99.90;;;;;;5000169;28;20030;-63
2024/01/17 02:53:52;;;;;;;11.07;4.97;;;-0.40;99.90;;;;;;4997744;28;20052;-63
2024/01/17 02:56:17;;;;;;;7.18;4.35;;;-0.40;99.90;;;;;;5003559;28;20512;-63
2024/01/17 02:58:44;;;;;;;8.57;4.82;;;-0.40;99.90;;;;;;4997365;28;20045;-63
2024/01/17 03:01:09;;;;;;;17.73;5.97;;;-0.40;99.90;;;;;;5001894;28;20034;-63
2024/01/17 03:03:35;;;;;;;10.30;4.88;;;-0.40;99.90;;;;;;5000257;28;20038;-63
2024/01/17 03:06:01;;;;;;;12.60;4.43;;;-0.40;99.90;;;;;;5002030;28;20090;-63
2024/01/17 03:08:27;;;;;;;7.63;4.18;;;-0.50;99.90;;;;;;4994774;28;20042;-63
2024/01/17 03:10:53;;;;;;;10.38;4.75;;;-0.40;99.90;;;;;;5001122;28;20033;-63
2024/01/17 03:13:19;;;;;;;11.38;5.28;;;-0.40;99.90;;;;;;5002995;28;20890;-63
2024/01/17 03:15:45;;;;;;;13.68;5.20;;;-0.50;99.90;;;;;;4999559;28;20030;-62
2024/01/17 03:18:13;;;;;;;10.75;5.25;;;-0.50;99.90;;;;;;4995007;28;20801;-63
2024/01/17 03:20:40;;;;;;;8.98;5.00;;;-0.40;99.90;;;;;;5002862;28;20099;-63
2024/01/17 03:23:06;;;;;;;11.60;5.53;;;-0.40;99.90;;;;;;4996419;28;20041;-63
2024/01/17 03:25:33;;;;;;;10.15;5.10;;;-0.40;99.90;;;;;;5005277;28;20041;-63
2024/01/17 03:27:58;;;;;;;9.23;4.82;;;-0.40;99.90;;;;;;5006768;28;20045;-63
2024/01/17 03:30:24;;;;;;;9.88;4.78;;;-0.40;99.90;;;;;;5004625;28;20045;-63
2024/01/17 03:32:50;;;;;;;10.50;5.10;;;-0.50;99.90;;;;;;5005980;28;20049;-63
2024/01/17 03:35:15;;;;;;;12.40;5.25;;;-0.50;99.90;;;;;;5007301;28;20029;-63
2024/01/17 03:37:41;;;;;;;15.15;6.15;;;-0.50;99.90;;;;;;5003894;28;20042;-63
2024/01/17 03:40:07;;;;;;;14.23;5.65;;;-0.50;99.90;;;;;;5007956;28;20217;-63
2024/01/17 03:42:33;;;;;;;13.40;6.25;;;-0.60;99.90;;;;;;5004487;28;20045;-63
2024/01/17 03:44:59;;;;;;;8.90;4.85;;;-0.60;99.90;;;;;;5005448;28;20033;-63
2024/01/17 03:47:25;;;;;;;9.82;4.90;;;-0.60;99.90;;;;;;5006631;28;20033;-63
2024/01/17 03:49:50;;;;;;;10.15;5.05;;;-0.70;99.90;;;;;;5003989;28;20038;-63
2024/01/17 03:52:16;;;;;;;8.43;4.80;;;-0.90;99.90;;;;;;4997477;28;20034;-63
2024/01/17 03:54:42;;;;;;;13.13;5.15;;;-0.90;99.90;;;;;;5004382;28;20390;-63
2024/01/17 03:57:10;;;;;;;11.80;5.13;;;-1.10;99.90;;;;;;4999313;28;20030;-63
2024/01/17 03:59:36;;;;;;;11.43;5.05;;;-1.10;99.90;;;;;;5000744;28;20038;-63
2024/01/17 04:02:02;;;;;;;8.15;4.93;;;-1.00;99.90;;;;;;4997075;28;20572;-63
2024/01/17 04:04:28;;;;;;;10.25;5.07;;;-0.90;99.90;;;;;;5002256;28;20034;-63
2024/01/17 04:06:55;;;;;;;8.13;4.25;;;-0.80;99.90;;;;;;5007886;28;20033;-63
2024/01/17 04:09:20;;;;;;;11.35;5.15;;;-0.70;99.90;;;;;;4999137;28;20410;-62
2024/01/17 04:11:46;;;;;;;11.68;4.45;;;-0.70;99.90;;;;;;4998667;28;20030;-63
2024/01/17 04:14:12;;;;;;;10.95;4.82;;;-0.70;99.90;;;;;;5004330;28;20442;-63
2024/01/17 04:16:39;;;;;;;10.98;5.38;;;-0.70;99.90;;;;;;5004731;28;20022;-63
2024/01/17 04:19:07;;;;;;;14.00;4.72;;;-0.70;99.90;;;;;;4999893;28;20086;-63
2024/01/17 04:21:33;;;;;;;14.45;5.40;;;-0.70;99.90;;;;;;5004591;28;20037;-63
2024/01/17 04:23:58;;;;;;;13.43;5.05;;;-0.80;99.90;;;;;;5004803;28;20051;-63
2024/01/17 04:26:25;;;;;;;9.48;5.05;;;-0.80;99.90;;;;;;5004323;28;20062;-63
2024/01/17 04:28:52;;;;;;;8.32;4.60;;;-0.80;99.90;;;;;;5003651;28;20088;-63
2024/01/17 04:31:29;;;;;;;9.40;4.20;;;-0.80;99.90;;;;;;5002806;28;20030;-63
2024/01/17 04:33:56;;;;;;;10.82;5.45;;;-0.70;99.90;;;;;;5007110;28;20597;-63
2024/01/17 04:36:24;;;;;;;13.45;5.88;;;-0.80;99.90;;;;;;5003211;28;20029;-63
2024/01/17 04:38:49;;;;;;;11.65;4.95;;;-0.80;99.90;;;;;;5007128;28;20096;-63
2024/01/17 04:41:16;;;;;;;13.20;5.57;;;-0.80;99.90;;;;;;4994588;28;20510;-63
2024/01/17 04:43:44;;;;;;;13.50;4.68;;;-0.80;99.90;;;;;;4997134;28;20030;-63
2024/01/17 04:46:13;;;;;;;14.20;5.60;;;-0.80;99.90;;;;;;5001672;28;20034;-63
2024/01/17 04:48:39;;;;;;;10.55;4.63;;;-0.80;99.90;;;;;;5004161;28;20116;-63
2024/01/17 04:51:06;;;;;;;12.32;4.72;;;-0.80;99.90;;;;;;4999832;28;20030;-62
2024/01/17 04:53:37;;;;;;;7.35;4.35;;;-0.80;99.90;;;;;;5004516;28;20034;-64
2024/01/17 04:56:05;;;;;;;7.90;4.57;;;-0.80;99.90;;;;;;5006568;28;20026;-63
2024/01/17 04:58:32;;;;;;;10.73;4.18;;;-0.80;99.90;;;;;;5001256;28;20065;-63
2024/01/17 05:00:58;;;;;;;10.55;4.68;;;-0.80;99.90;;;;;;5002508;28;20603;-63
2024/01/17 05:03:24;;;;;;;10.98;4.70;;;-0.90;99.90;;;;;;5003825;28;20035;-63
2024/01/17 05:05:49;;;;;;;10.45;5.72;;;-0.90;99.90;;;;;;5000282;28;20042;-63
2024/01/17 05:08:15;;;;;;;7.88;4.65;;;-1.00;99.90;;;;;;5005823;28;20030;-63
2024/01/17 05:10:43;;;;;;;9.00;4.57;;;-0.90;99.90;;;;;;5006358;28;20037;-63
2024/01/17 05:13:09;;;;;;;9.75;4.93;;;-1.00;99.90;;;;;;5004895;28;20116;-63
2024/01/17 05:15:35;;;;;;;17.23;5.75;;;-1.00;99.90;;;;;;5002492;28;20462;-63
2024/01/17 05:18:00;;;;;;;10.18;5.22;;;-1.10;99.90;;;;;;5003828;28;20044;-64
2024/01/17 05:20:26;;;;;;;10.75;4.97;;;-1.10;99.90;;;;;;5002663;28;20861;-63
2024/01/17 05:22:52;;;;;;;11.60;5.07;;;-1.20;99.90;;;;;;5002497;28;20049;-63
2024/01/17 05:25:17;;;;;;;11.77;4.82;;;-1.30;99.90;;;;;;5000546;28;20045;-63
2024/01/17 05:27:50;;;;;;;9.77;5.28;;;-1.20;99.90;;;;;;5005926;28;20048;-63
2024/01/17 05:30:16;;;;;;;12.60;5.32;;;-1.20;99.90;;;;;;4996080;28;20040;-63
2024/01/17 05:32:42;;;;;;;9.75;5.18;;;-1.20;99.90;;;;;;4991087;28;20030;-63
2024/01/17 05:35:08;;;;;;;14.45;5.60;;;-1.30;99.90;;;;;;5003921;28;20033;-63
2024/01/17 05:37:35;;;;;;;11.75;5.57;;;-1.30;99.90;;;;;;5002871;28;20030;-63
2024/01/17 05:40:00;;;;;;;15.18;5.32;;;-1.30;99.90;;;;;;4997270;28;20033;-63
2024/01/17 05:42:26;;;;;;;10.82;5.95;;;-1.20;99.90;;;;;;5004828;28;20490;-63
2024/01/17 05:44:52;;;;;;;15.68;5.57;;;-1.20;99.90;;;;;;5004188;28;20424;-63
2024/01/17 05:47:18;;;;;;;13.50;4.95;;;-1.20;99.90;;;;;;5001304;28;20443;-63
2024/01/17 05:49:43;;;;;;;13.07;4.43;;;-1.20;99.90;;;;;;5001537;28;20593;-63
2024/01/17 05:52:10;;;;;;;8.88;4.75;;;-1.20;99.90;;;;;;4998668;28;20034;-63
2024/01/17 05:54:36;;;;;;;12.85;4.90;;;-1.30;99.90;;;;;;5000223;28;20037;-63
2024/01/17 05:57:01;;;;;;;9.23;4.80;;;-1.40;99.90;;;;;;4994953;28;20105;-63
2024/01/17 05:59:27;;;;;;;10.15;4.72;;;-1.40;99.90;;;;;;5001421;28;20510;-63
2024/01/17 06:01:53;;;;;;;16.38;5.63;;;-1.40;99.90;;;;;;5005751;28;20048;-62
2024/01/17 06:04:19;;;;;;;14.05;5.20;;;-1.40;99.90;;;;;;4998781;28;20074;-63
2024/01/17 06:06:45;;;;;;;10.90;5.50;;;-1.50;99.90;;;;;;5004690;28;20042;-63
2024/01/17 06:09:10;;;;;;;15.65;5.40;;;-1.50;99.90;;;;;;5001397;28;20041;-63
2024/01/17 06:11:36;;;;;;;11.55;5.10;;;-1.50;99.90;;;;;;4998585;28;20034;-63
2024/01/17 06:14:03;;;;;;;21.13;6.20;;;-1.60;99.90;;;;;;5003963;28;20034;-63
2024/01/17 06:16:29;;;;;;;13.25;5.30;;;-1.50;99.90;;;;;;5005934;28;20030;-63
2024/01/17 06:18:59;;;;;;;15.98;5.50;;;-1.60;99.90;;;;;;4994983;28;20836;-63
2024/01/17 06:21:25;;;;;;;11.45;5.75;;;-1.60;99.90;;;;;;5002140;28;20026;-63
2024/01/17 06:23:51;;;;;;;15.40;5.43;;;-1.60;99.90;;;;;;5005002;28;20714;-63
2024/01/17 06:26:17;;;;;;;13.52;5.38;;;-1.50;99.90;;;;;;4999000;28;20037;-63
2024/01/17 06:28:43;;;;;;;9.82;5.20;;;-1.50;99.90;;;;;;4999547;28;20037;-63
2024/01/17 06:31:09;;;;;;;11.27;4.90;;;-1.60;99.90;;;;;;5001519;28;20026;-63
2024/01/17 06:33:34;;;;;;;12.75;5.40;;;-1.50;99.90;;;;;;5001906;28;20541;-63
2024/01/17 06:36:00;;;;;;;16.45;6.20;;;-1.50;99.90;;;;;;5001362;28;20479;-63
2024/01/17 06:38:26;;;;;;;8.65;4.30;;;-1.50;99.90;;;;;;5005052;28;20037;-63
2024/01/17 06:40:52;;;;;;;8.70;5.15;;;-1.60;99.90;;;;;;4997316;28;20038;-63
2024/01/17 06:43:17;;;;;;;10.80;4.88;;;-1.60;99.90;;;;;;5002823;28;20034;-63
2024/01/17 06:45:43;;;;;;;12.30;5.13;;;-1.50;99.90;;;;;;4999313;28;20109;-63
2024/01/17 06:48:09;;;;;;;11.95;5.13;;;-1.50;99.90;;;;;;4994736;28;20076;-63
2024/01/17 06:50:35;;;;;;;10.57;4.85;;;-1.50;99.90;;;;;;4998319;28;20030;-63
2024/01/17 06:53:00;;;;;;;7.88;4.57;;;-1.40;99.90;;;;;;4999925;28;20030;-63
2024/01/17 06:55:26;;;;;;;9.57;4.88;;;-1.40;99.90;;;;;;5001443;28;20114;-63
2024/01/17 06:57:52;;;;;;;10.30;4.28;;;-1.50;99.90;;;;;;4998176;28;20625;-63
2024/01/17 07:00:18;;;;;;;10.57;4.32;;;-1.40;99.90;;;;;;5003431;28;20034;-63
2024/01/17 07:02:43;;;;;;;12.15;5.22;;;-1.40;99.90;;;;;;5004436;28;20099;-63
2024/01/17 07:05:09;;;;;;;11.45;4.88;;;-1.30;99.90;;;;;;5006075;28;20099;-64
2024/01/17 07:07:39;;;;;;;11.65;4.85;;;-1.20;99.90;;;;;;5008012;28;20022;-63
2024/01/17 07:10:05;;;;;;;10.07;5.22;;;-1.20;99.90;;;;;;5004015;28;20041;-63
2024/01/17 07:12:31;;;;;;;6.93;4.18;;;-1.10;99.90;;;;;;4992184;28;20030;-64
2024/01/17 07:14:57;;;;;;;12.15;4.60;;;-1.10;99.90;;;;;;5003863;28;20573;-62
2024/01/17 07:17:23;;;;;;;11.27;5.07;;;-1.10;99.90;;;;;;5005323;28;20057;-62
2024/01/17 07:19:49;;;;;;;16.52;5.82;;;-1.20;99.90;;;;;;5000590;28;20041;-63
2024/01/17 07:22:14;;;;;;;12.60;5.32;;;-1.30;99.90;;;;;;4998398;28;20038;-64
2024/01/17 07:24:43;;;;;;;11.13;4.70;;;-1.30;99.90;;;;;;5002668;28;20037;-64
2024/01/17 07:27:09;;;;;;;10.68;5.30;;;-1.40;99.90;;;;;;5001533;28;20030;-63
2024/01/17 07:29:35;;;;;;;11.95;5.35;;;-1.40;99.90;;;;;;4999011;28;20038;-64
2024/01/17 07:32:02;;;;;;;11.93;5.43;;;-1.40;99.90;;;;;;5006420;28;20038;-63
2024/01/17 07:34:28;;;;;;;11.07;5.82;;;-1.40;99.90;;;;;;5003755;28;20133;-64
2024/01/17 07:36:53;;;;;;;9.90;5.32;;;-1.40;99.90;;;;;;5007931;28;20462;-62
2024/01/17 07:39:21;;;;;;;12.45;5.45;;;-1.40;99.90;;;;;;5004248;28;20037;-62
2024/01/17 07:41:47;;;;;;;8.48;4.90;;;-1.30;99.90;;;;;;5004943;28;20057;-62
2024/01/17 07:44:14;;;;;;;13.82;5.68;;;-1.40;99.90;;;;;;5002293;28;20044;-61
2024/01/17 07:46:40;;;;;;;9.68;5.32;;;-1.40;99.90;;;;;;5002136;28;20031;-62
2024/01/17 07:49:06;;;;;;;10.00;5.47;;;-1.30;99.90;;;;;;5004794;28;20133;-61
2024/01/17 07:51:32;;;;;;;8.43;4.45;;;-1.30;99.90;;;;;;5003732;28;20112;-61
2024/01/17 07:53:57;;;;;;;16.23;6.25;;;-1.30;99.90;;;;;;4999564;28;20026;-61
2024/01/17 07:56:23;;;;;;;9.43;5.20;;;-1.30;99.90;;;;;;5001497;28;20625;-61
2024/01/17 07:58:52;;;;;;;11.35;4.88;;;-1.20;99.90;;;;;;5001458;28;20068;-63
2024/01/17 08:01:18;;;;;;;8.77;4.57;;;-1.10;99.90;;;;;;5001502;28;20465;-62
2024/01/17 08:03:44;;;;;;;13.77;5.07;;;-1.10;99.90;;;;;;5006858;28;20038;-62
2024/01/17 08:06:09;;;;;;;10.27;5.00;;;-1.10;99.90;;;;;;5002965;28;20033;-61
2024/01/17 08:08:35;;;;;;;7.85;4.28;;;-1.10;99.90;;;;;;5005790;28;20413;-61
2024/01/17 08:11:02;;;;;;;11.10;4.40;;;-1.00;99.90;;;;;;5007295;28;20040;-61
2024/01/17 08:13:28;;;;;;;14.82;5.55;;;-1.00;99.90;;;;;;5006676;28;20042;-61
2024/01/17 08:15:53;;;;;;;9.25;4.85;;;-1.10;99.90;;;;;;5004249;28;20038;-62
2024/01/17 08:18:19;;;;;;;7.25;4.35;;;-1.10;99.90;;;;;;5007929;28;20461;-61
2024/01/17 08:20:46;;;;;;;10.80;4.65;;;-1.00;99.90;;;;;;5006730;28;20545;-63
2024/01/17 08:23:12;;;;;;;12.25;5.10;;;-1.00;99.90;;;;;;5036883;28;20037;-64
2024/01/17 08:25:38;;;;;;;10.45;4.40;;;-0.90;99.90;;;;;;5009107;28;20033;-63
2024/01/17 08:28:04;;;;;;;10.95;4.22;;;-1.00;99.90;;;;;;5007879;28;20496;-63
2024/01/17 08:30:30;;;;;;;8.65;4.80;;;-1.00;99.90;;;;;;4996580;28;20033;-64
2024/01/17 08:32:55;;;;;;;12.93;5.43;;;-0.90;99.90;;;;;;5006056;28;20057;-64
2024/01/17 08:35:21;;;;;;;8.80;4.65;;;-0.80;99.90;;;;;;5005060;28;20120;-64
2024/01/17 08:37:47;;;;;;;9.05;4.30;;;-0.80;99.90;;;;;;5000742;28;20038;-64
2024/01/17 08:40:13;;;;;;;11.70;4.60;;;-0.80;99.90;;;;;;5008976;28;20026;-64
2024/01/17 08:42:39;;;;;;;9.27;4.18;;;-0.80;99.90;;;;;;5003218;28;20026;-64
2024/01/17 08:45:06;;;;;;;9.32;4.22;;;-0.90;99.90;;;;;;5006318;28;20064;-63
2024/01/17 08:47:32;;;;;;;13.48;3.97;;;-0.90;99.90;;;;;;5003182;28;20037;-63
2024/01/17 08:50:00;;;;;;;11.32;4.60;;;-1.00;99.90;;;;;;4996666;28;20042;-64
2024/01/17 08:52:26;;;;;;;6.78;4.13;;;-1.00;99.90;;;;;;5005300;28;20034;-64
2024/01/17 08:54:55;;;;;;;11.75;4.40;;;-0.90;99.90;;;;;;4998982;28;20855;-64
2024/01/17 08:57:21;;;;;;;8.35;4.75;;;-0.80;99.90;;;;;;4999231;28;20494;-64
2024/01/17 08:59:47;;;;;;;9.35;4.13;;;-0.70;99.90;;;;;;5002620;28;20030;-64
2024/01/17 09:02:12;;;;;;;10.60;4.90;;;-0.70;99.90;;;;;;4999726;28;20622;-64
2024/01/17 09:04:39;;;;;;;10.18;4.88;;;-0.60;99.90;;;;;;5002345;28;20030;-64
2024/01/17 09:07:05;;;;;;;8.40;4.22;;;-0.60;99.90;;;;;;5003118;28;20498;-64
2024/01/17 09:09:30;;;;;;;10.38;4.18;;;-0.60;99.90;;;;;;4995282;28;20031;-61
2024/01/17 09:11:57;;;;;;;10.73;4.20;;;-0.60;99.90;;;;;;5000433;28;20034;-61
2024/01/17 09:14:24;;;;;;;9.80;4.68;;;-0.50;99.90;;;;;;4998896;28;20038;-61
2024/01/17 09:16:51;;;;;;;6.32;3.67;;;-0.40;99.90;;;;;;5004233;28;20041;-61
2024/01/17 09:19:18;;;;;;;7.60;4.05;;;-0.30;99.90;;;;;;5005109;28;20134;-61
2024/01/17 09:21:43;;;;;;;7.57;4.53;;;-0.10;99.90;;;;;;5005830;28;20026;-61
2024/01/17 09:24:09;;;;;;;8.27;4.05;;;-0.10;99.90;;;;;;5002257;28;20387;-61
2024/01/17 09:26:35;;;;;;;6.90;4.05;;;-0.10;99.90;;;;;;4989641;28;20143;-61
2024/01/17 09:29:01;;;;;;;6.93;4.15;;;0.00;99.90;;;;;;5001225;28;20040;-61
2024/01/17 09:31:27;;;;;;;6.65;3.63;;;0.10;99.90;;;;;;5004919;28;20089;-61
2024/01/17 09:33:53;;;;;;;9.18;4.00;;;0.30;99.90;;;;;;5004457;28;20034;-60
2024/01/17 09:36:20;;;;;;;10.50;4.68;;;0.30;99.90;;;;;;5005935;28;20165;-61
2024/01/17 09:38:45;;;;;;;8.05;3.30;;;0.30;99.90;;;;;;4991472;28;20034;-60
2024/01/17 09:41:11;;;;;;;6.88;3.90;;;0.30;99.90;;;;;;4999972;28;20797;-60
2024/01/17 09:43:37;;;;;;;8.85;4.07;;;0.30;99.90;;;;;;5002693;28;20056;-61
2024/01/17 09:46:04;;;;;;;16.00;3.83;;;0.40;99.90;;;;;;5005735;28;20103;-60
2024/01/17 09:48:30;;;;;;;7.35;3.38;;;0.50;99.90;;;;;;5002402;28;20038;-60
2024/01/17 09:51:00;;;;;;;9.00;4.32;;;0.50;99.90;;;;;;5002209;28;20111;-61
2024/01/17 09:53:31;;;;;;;8.73;3.83;;;0.70;99.90;;;;;;5004296;28;20045;-61
2024/01/17 09:56:00;;;;;;;9.57;4.00;;;0.80;99.90;;;;;;4999006;28;20041;-61
2024/01/17 09:58:35;;;;;;;7.57;4.00;;;0.90;99.90;;;;;;5004412;28;20034;-61
2024/01/17 10:01:04;;;;;;;7.05;3.53;;;1.00;99.90;;;;;;4999685;28;20041;-60
2024/01/17 10:03:30;;;;;;;10.43;3.35;;;1.30;99.90;;;;;;5000946;28;20041;-60
2024/01/17 10:05:57;;;;;;;7.68;3.38;;;1.60;99.90;;;;;;5003643;28;20210;-60
2024/01/17 10:08:24;;;;;;;6.35;3.60;;;1.90;99.90;;;;;;5000374;28;20049;-60
2024/01/17 10:10:49;;;;;;;7.20;4.20;;;2.00;99.90;;;;;;5002795;28;20037;-61
2024/01/17 10:13:16;;;;;;;6.45;3.60;;;2.20;99.50;;;;;;5003069;28;20045;-60
2024/01/17 10:15:42;;;;;;;11.45;3.90;;;2.20;98.80;;;;;;4996829;28;20065;-61
2024/01/17 10:18:12;;;;;;;6.88;3.97;;;2.00;98.30;;;;;;5004218;28;20037;-62
2024/01/17 10:20:38;;;;;;;9.07;4.57;;;2.00;98.80;;;;;;5000225;28;20034;-63
2024/01/17 10:23:06;;;;;;;5.53;3.35;;;1.80;98.80;;;;;;5002497;28;20033;-63
2024/01/17 10:25:42;;;;;;;8.63;3.90;;;1.70;99.00;;;;;;5003940;28;20083;-63
2024/01/17 10:28:08;;;;;;;9.18;4.10;;;1.60;99.60;;;;;;5002152;28;20540;-63
2024/01/17 10:30:38;;;;;;;10.35;4.10;;;1.80;99.90;;;;;;4999949;28;20029;-63
2024/01/17 10:33:06;;;;;;;6.85;3.65;;;2.10;99.00;;;;;;5003912;28;20419;-63
2024/01/17 10:35:32;;;;;;;6.60;3.42;;;2.20;98.60;;;;;;5002728;28;20053;-63
2024/01/17 10:37:59;;;;;;;11.55;4.57;;;2.50;98.30;;;;;;5006431;28;20157;-63
2024/01/17 10:40:25;;;;;;;8.23;4.75;;;2.70;97.60;;;;;;5001834;28;20052;-63
2024/01/17 10:43:09;;;;;;;6.78;3.45;;;2.70;97.70;;;;;;5005121;28;20087;-63
2024/01/17 10:45:49;;;;;;;6.93;3.67;;;2.80;97.00;;;;;;5001494;28;20383;-63
2024/01/17 10:48:15;;;;;;;9.32;4.68;;;3.00;96.80;;;;;;5001978;28;20042;-63
2024/01/17 10:50:44;;;;;;;6.45;3.90;;;3.10;95.70;;;;;;5002984;28;20033;-63
2024/01/17 10:53:11;;;;;;;7.30;3.92;;;3.00;95.80;;;;;;5006142;28;20052;-63
2024/01/17 10:55:44;;;;;;;8.75;3.92;;;3.10;95.80;;;;;;5011571;28;20048;-63
2024/01/17 10:58:14;;;;;;;8.05;3.90;;;3.20;95.40;;;;;;5007796;28;20046;-63
2024/01/17 11:00:49;;;;;;;9.02;4.70;;;3.70;95.40;;;;;;5005019;28;20030;-63
2024/01/17 11:03:19;;;;;;;7.63;3.88;;;4.00;94.20;;;;;;5011722;28;20851;-63
2024/01/17 11:05:55;;;;;;;11.43;4.50;;;4.40;93.30;;;;;;5005993;28;20040;-63
2024/01/17 11:08:21;;;;;;;7.30;3.85;;;4.90;92.60;;;;;;4999672;28;20042;-62
2024/01/17 11:10:47;;;;;;;7.63;3.90;;;5.40;90.80;;;;;;4999729;28;20105;-63
2024/01/17 11:13:15;;;;;;;8.02;4.07;;;5.40;90.70;;;;;;5005768;28;20389;-63
2024/01/17 11:15:41;;;;;;;7.90;4.03;;;5.60;90.10;;;;;;5001542;28;20041;-63
2024/01/17 11:18:12;;;;;;;6.25;3.97;;;5.50;88.20;;;;;;5002261;28;20044;-63
2024/01/17 11:20:40;;;;;;;7.90;4.35;;;5.60;89.80;;;;;;5003295;28;20033;-63
2024/01/17 11:23:08;;;;;;;7.90;3.60;;;5.60;89.20;;;;;;5003422;28;20044;-63
2024/01/17 11:25:41;;;;;;;8.13;4.68;;;5.50;87.30;;;;;;5005634;28;20046;-63
2024/01/17 11:28:16;;;;;;;7.90;4.18;;;5.20;88.70;;;;;;5000295;28;20038;-63
2024/01/17 11:31:06;;;;;;;11.68;4.32;;;4.70;90.20;;;;;;5005112;28;20193;-63
2024/01/17 11:33:32;;;;;;;9.82;4.25;;;4.00;92.00;;;;;;5001928;28;20041;-62
2024/01/17 11:35:59;;;;;;;7.05;4.13;;;3.60;93.00;;;;;;5003554;28;20054;-62
2024/01/17 11:38:24;;;;;;;8.55;4.40;;;3.40;93.60;;;;;;5005535;28;20034;-62
2024/01/17 11:41:06;;;;;;;6.57;3.60;;;3.20;93.30;;;;;;5004850;28;20380;-62
2024/01/17 11:43:36;;;;;;;11.18;4.78;;;3.00;94.30;;;;;;5003360;28;20528;-62
2024/01/17 11:46:08;;;;;;;8.68;4.30;;;2.80;94.60;;;;;;5000604;28;20153;-62
2024/01/17 11:48:36;;;;;;;11.35;4.38;;;2.80;95.20;;;;;;5002006;28;20030;-62
2024/01/17 11:51:14;;;;;;;11.00;4.55;;;2.40;95.60;;;;;;5004823;28;20910;-62
2024/01/17 11:53:50;;;;;;;12.85;4.47;;;2.40;96.80;;;;;;4997079;28;20122;-62
2024/01/17 11:56:20;;;;;;;9.02;3.53;;;2.40;96.60;;;;;;5005217;28;20030;-62
2024/01/17 11:58:45;;;;;;;7.85;4.13;;;2.60;96.10;;;;;;5004183;28;20067;-62
2024/01/17 12:01:12;;;;;;;10.82;4.53;;;2.40;96.10;;;;;;5005060;28;20033;-62
2024/01/17 12:03:39;;;;;;;9.57;4.78;;;2.30;96.50;;;;;;5002147;28;20084;-62
2024/01/17 12:06:08;;;;;;;8.38;4.25;;;2.30;97.00;;;;;;5003186;28;20041;-62
2024/01/17 12:08:36;;;;;;;9.05;4.47;;;2.30;96.70;;;;;;5005791;28;20042;-62
2024/01/17 12:11:02;;;;;;;10.18;3.97;;;2.30;96.40;;;;;;4998900;28;20037;-62
2024/01/17 12:13:29;;;;;;;9.07;4.53;;;2.30;97.20;;;;;;5001011;28;20030;-62
2024/01/17 12:15:56;;;;;;;12.20;4.78;;;2.20;97.30;;;;;;5003901;28;20076;-62
2024/01/17 12:18:26;;;;;;;7.97;4.18;;;2.20;98.00;;;;;;5006506;28;20524;-62
2024/01/17 12:20:54;;;;;;;11.18;4.45;;;2.30;98.10;;;;;;5006926;28;20042;-62
2024/01/17 12:23:22;;;;;;;9.23;4.25;;;2.50;97.30;;;;;;4995936;28;20038;-61
2024/01/17 12:25:49;;;;;;;8.43;4.40;;;2.60;97.30;;;;;;5005416;28;20042;-62
2024/01/17 12:28:22;;;;;;;11.90;4.50;;;2.60;97.30;;;;;;4999027;28;20033;-62
2024/01/17 12:31:06;;;;;;;8.30;4.80;;;2.60;97.40;;;;;;4997640;28;20505;-62
2024/01/17 12:33:38;;;;;;;11.00;4.47;;;2.60;97.30;;;;;;5004101;28;20124;-62
2024/01/17 12:36:06;;;;;;;8.25;4.47;;;2.60;97.20;;;;;;5005108;28;20038;-62
2024/01/17 12:38:35;;;;;;;8.82;3.70;;;2.70;97.10;;;;;;5001516;28;20121;-62
2024/01/17 12:41:05;;;;;;;9.13;4.22;;;2.60;97.30;;;;;;5002979;28;20044;-62
2024/01/17 12:43:33;;;;;;;8.32;4.35;;;2.60;97.50;;;;;;5002069;28;20099;-62